Time;durP1;ratioP1;P1;durP2;ratioP2;P2;SDS_P1;SDS_P2;PMS_P1;PMS_P2;Temp;Humidity;BMP_temperature;BMP_pressure;BME280_temperature;BME280_humidity;BME280_pressure;Samples;Min_cycle;Max_cycle;Signal;HPM_P1;HPM_P2
2022/06/23 00:01:19;;;;;;;36.93;25.47;;;18.50;99.90;;;;;;5082031;28;20286;-77
2022/06/23 00:03:49;;;;;;;33.47;27.53;;;18.50;99.90;;;;;;5070539;28;20673;-77
2022/06/23 00:06:33;;;;;;;39.30;28.60;;;18.50;99.90;;;;;;5079883;28;20214;-77
2022/06/23 00:09:20;;;;;;;37.00;28.33;;;18.50;99.90;;;;;;5075510;28;20227;-79
2022/06/23 00:11:50;;;;;;;31.10;26.57;;;18.50;99.90;;;;;;5076771;28;20286;-76
2022/06/23 00:14:18;;;;;;;38.63;29.73;;;18.50;99.90;;;;;;5075270;28;20676;-73
2022/06/23 00:16:46;;;;;;;34.97;27.03;;;18.50;99.90;;;;;;5075032;28;20203;-75
2022/06/23 00:19:16;;;;;;;36.70;27.50;;;18.50;99.90;;;;;;5073706;28;20737;-77
2022/06/23 00:21:46;;;;;;;33.60;28.17;;;18.50;99.90;;;;;;5074920;28;20231;-76
2022/06/23 00:24:18;;;;;;;38.93;30.27;;;18.40;99.90;;;;;;5072645;28;20603;-78
2022/06/23 00:26:47;;;;;;;42.53;30.97;;;18.40;99.90;;;;;;5072109;28;20227;-77
2022/06/23 00:29:18;;;;;;;38.93;31.47;;;18.50;99.90;;;;;;5073008;28;20337;-78
2022/06/23 00:31:54;;;;;;;45.17;33.73;;;18.50;99.90;;;;;;5074507;28;20202;-77
2022/06/23 00:34:27;;;;;;;46.03;35.33;;;18.40;99.90;;;;;;5073716;28;20203;-79
2022/06/23 00:37:02;;;;;;;44.73;34.73;;;18.50;99.90;;;;;;5067879;28;20203;-77
2022/06/23 00:39:35;;;;;;;54.10;35.10;;;18.40;99.90;;;;;;5066608;28;20742;-77
2022/06/23 00:42:07;;;;;;;43.20;33.90;;;18.40;99.90;;;;;;5072701;28;20215;-76
2022/06/23 00:44:41;;;;;;;46.90;35.40;;;18.50;99.90;;;;;;5070795;28;20286;-77
2022/06/23 00:47:16;;;;;;;50.70;36.87;;;18.50;99.90;;;;;;5078965;28;20262;-78
2022/06/23 00:49:52;;;;;;;50.13;35.30;;;18.40;99.90;;;;;;5080700;28;20560;-77
2022/06/23 00:52:29;;;;;;;43.40;35.40;;;18.50;99.90;;;;;;5078748;28;20307;-78
2022/06/23 00:55:04;;;;;;;49.77;37.03;;;18.40;99.90;;;;;;5076779;28;20203;-78
2022/06/23 00:57:37;;;;;;;51.17;36.57;;;18.40;99.90;;;;;;5073619;28;20291;-78
2022/06/23 01:00:14;;;;;;;54.33;38.77;;;18.40;99.90;;;;;;5075642;28;20204;-78
2022/06/23 01:02:47;;;;;;;45.40;33.30;;;18.50;99.90;;;;;;5077964;28;20198;-81
2022/06/23 01:05:23;;;;;;;50.70;38.20;;;18.40;99.90;;;;;;5073319;28;20200;-79
2022/06/23 01:07:59;;;;;;;52.63;38.00;;;18.50;99.90;;;;;;5075638;28;20313;-77
2022/06/23 01:10:33;;;;;;;46.20;35.43;;;18.50;99.90;;;;;;5075238;28;20314;-77
2022/06/23 01:13:11;;;;;;;54.20;38.43;;;18.40;99.90;;;;;;5075785;28;20672;-79
2022/06/23 01:15:43;;;;;;;46.47;35.20;;;18.50;99.90;;;;;;5075147;28;20203;-79
2022/06/23 01:18:18;;;;;;;47.17;35.87;;;18.40;99.90;;;;;;5075582;28;20568;-74
2022/06/23 01:20:52;;;;;;;41.77;33.60;;;18.40;99.90;;;;;;5074463;28;20294;-74
2022/06/23 01:24:01;;;;;;;50.63;32.27;;;18.40;99.90;;;;;;5079596;28;20259;-78
2022/06/23 01:26:44;;;;;;;39.80;30.30;;;18.40;99.90;;;;;;5075379;28;20315;-78
2022/06/23 01:29:18;;;;;;;42.87;30.97;;;18.30;99.90;;;;;;5068747;28;20302;-78
2022/06/23 01:31:49;;;;;;;49.90;33.77;;;18.30;99.90;;;;;;5075456;28;20658;-78
2022/06/23 01:34:26;;;;;;;40.50;32.10;;;18.30;99.90;;;;;;5068289;28;20242;-76
2022/06/23 01:37:00;;;;;;;43.37;31.53;;;18.30;99.90;;;;;;5081653;28;20210;-77
2022/06/23 01:39:37;;;;;;;38.73;30.77;;;18.30;99.90;;;;;;5084024;28;20234;-78
2022/06/23 01:42:23;;;;;;;34.40;27.53;;;18.20;99.90;;;;;;5081356;28;20265;-74
2022/06/23 01:45:00;;;;;;;32.70;26.83;;;18.20;99.90;;;;;;5079459;28;20203;-76
2022/06/23 01:47:36;;;;;;;37.07;28.57;;;18.20;99.90;;;;;;5082059;28;20249;-79
2022/06/23 01:50:40;;;;;;;38.57;29.30;;;18.20;99.90;;;;;;5072170;28;20298;-79
2022/06/23 01:53:26;;;;;;;34.60;27.93;;;18.20;99.90;;;;;;5011915;28;20293;-78
2022/06/23 01:56:15;;;;;;;38.43;29.47;;;18.20;99.90;;;;;;5010136;28;20209;-77
2022/06/23 01:58:54;;;;;;;35.17;29.60;;;18.20;99.90;;;;;;5053837;28;20235;-77
2022/06/23 02:01:31;;;;;;;33.60;29.20;;;18.20;99.90;;;;;;5073953;28;20660;-77
2022/06/23 02:04:04;;;;;;;40.50;30.30;;;18.20;99.90;;;;;;5073971;28;20237;-74
2022/06/23 02:06:42;;;;;;;33.17;27.57;;;18.20;99.90;;;;;;5073969;28;20254;-74
2022/06/23 02:09:16;;;;;;;35.70;29.00;;;18.20;99.90;;;;;;5068426;28;20227;-75
2022/06/23 02:11:48;;;;;;;31.70;28.27;;;18.20;99.90;;;;;;5080595;28;20234;-80
2022/06/23 02:14:40;;;;;;;32.53;27.43;;;18.10;99.90;;;;;;5080103;28;20242;-78
2022/06/23 02:17:26;;;;;;;33.53;26.57;;;18.10;99.90;;;;;;5080636;28;20238;-77
2022/06/23 02:19:56;;;;;;;34.17;26.17;;;18.10;99.90;;;;;;5082732;28;20684;-80
2022/06/23 02:22:30;;;;;;;29.83;25.33;;;18.00;99.90;;;;;;5071174;28;20598;-79
2022/06/23 02:25:12;;;;;;;28.23;24.40;;;18.00;99.90;;;;;;5076058;28;20207;-78
2022/06/23 02:27:43;;;;;;;30.80;25.53;;;18.00;99.90;;;;;;5079482;28;20242;-73
2022/06/23 02:30:17;;;;;;;32.20;26.73;;;18.00;99.90;;;;;;5070421;28;20669;-79
2022/06/23 02:33:00;;;;;;;27.30;22.90;;;17.90;99.90;;;;;;5081769;28;20294;-77
2022/06/23 02:35:34;;;;;;;29.93;25.87;;;17.90;99.90;;;;;;5080978;28;20278;-80
2022/06/23 02:38:09;;;;;;;30.83;25.10;;;17.90;99.90;;;;;;5078391;28;20195;-78
2022/06/23 02:40:41;;;;;;;33.37;27.83;;;17.90;99.90;;;;;;5077957;28;20218;-79
2022/06/23 02:43:25;;;;;;;31.67;25.73;;;17.90;99.90;;;;;;5072707;28;20662;-77
2022/06/23 02:46:27;;;;;;;30.80;26.07;;;17.90;99.90;;;;;;5074292;28;20224;-77
2022/06/23 02:49:37;;;;;;;34.53;28.30;;;18.00;99.90;;;;;;5068665;28;20222;-75
2022/06/23 02:52:39;;;;;;;35.40;28.23;;;18.00;99.90;;;;;;5047871;28;20236;-76
2022/06/23 02:55:32;;;;;;;38.17;29.20;;;18.00;99.90;;;;;;5063135;28;20752;-77
2022/06/23 02:58:05;;;;;;;36.00;29.43;;;18.00;99.90;;;;;;5072881;28;20627;-76
2022/06/23 03:00:41;;;;;;;44.13;31.33;;;18.00;99.90;;;;;;5066030;28;20302;-78
2022/06/23 03:03:15;;;;;;;43.07;32.30;;;18.00;99.90;;;;;;5067205;28;20727;-79
2022/06/23 03:05:57;;;;;;;41.50;32.30;;;18.00;99.90;;;;;;5070374;28;20207;-77
2022/06/23 03:08:31;;;;;;;42.90;30.43;;;18.00;99.90;;;;;;5081327;28;20326;-79
2022/06/23 03:11:03;;;;;;;47.80;35.00;;;18.00;99.90;;;;;;5078906;28;20280;-76
2022/06/23 03:13:44;;;;;;;44.87;32.73;;;18.00;99.90;;;;;;5079408;28;20204;-76
2022/06/23 03:16:22;;;;;;;47.30;33.40;;;18.00;99.90;;;;;;5077621;28;20600;-78
2022/06/23 03:18:58;;;;;;;50.47;33.10;;;18.00;99.90;;;;;;5069480;28;20207;-77
2022/06/23 03:21:31;;;;;;;42.47;33.23;;;18.00;99.90;;;;;;5078252;28;20640;-78
2022/06/23 03:24:05;;;;;;;41.83;32.00;;;18.00;99.90;;;;;;5072638;28;20227;-78
2022/06/23 03:26:40;;;;;;;41.43;32.63;;;18.00;99.90;;;;;;5072028;28;20239;-77
2022/06/23 03:29:16;;;;;;;41.27;32.50;;;18.00;99.90;;;;;;5071702;28;20294;-78
2022/06/23 03:31:51;;;;;;;41.97;32.27;;;18.00;99.90;;;;;;5070714;28;20272;-74
2022/06/23 03:34:26;;;;;;;39.80;31.80;;;18.00;99.90;;;;;;5069090;28;20199;-74
2022/06/23 03:36:59;;;;;;;37.40;29.40;;;18.00;99.90;;;;;;5071038;28;20237;-75
2022/06/23 03:42:30;;;;;;;37.50;30.47;;;18.00;99.90;;;;;;5067327;28;20652;-75
2022/06/23 03:45:12;;;;;;;37.47;27.97;;;18.00;99.90;;;;;;5071645;28;20207;-77
2022/06/23 03:47:47;;;;;;;38.53;29.60;;;18.00;99.90;;;;;;5072759;28;20219;-76
2022/06/23 03:50:23;;;;;;;43.10;29.63;;;18.00;99.90;;;;;;5070337;28;20306;-78
2022/06/23 03:52:57;;;;;;;40.60;29.17;;;18.00;99.90;;;;;;5071989;28;20249;-75
2022/06/23 03:55:30;;;;;;;40.13;28.90;;;18.00;99.90;;;;;;5068167;28;20234;-75
2022/06/23 03:58:03;;;;;;;33.50;27.73;;;18.00;99.90;;;;;;5071478;28;20279;-77
2022/06/23 04:00:36;;;;;;;41.60;29.57;;;18.00;99.90;;;;;;5072049;28;20235;-76
2022/06/23 04:03:21;;;;;;;36.30;28.30;;;18.10;99.90;;;;;;5076052;28;20232;-77
2022/06/23 04:06:16;;;;;;;30.37;22.23;;;18.10;99.90;;;;;;5074247;28;20269;-78
2022/06/23 04:08:52;;;;;;;20.83;17.13;;;18.10;99.90;;;;;;5072581;28;20259;-78
2022/06/23 04:14:27;;;;;;;27.40;21.83;;;18.40;99.90;;;;;;5068416;28;20250;-77
2022/06/23 04:17:21;;;;;;;27.40;21.83;;;18.50;99.90;;;;;;5073505;28;20264;-74
2022/06/23 04:19:54;;;;;;;24.83;19.80;;;18.60;99.90;;;;;;5072841;28;20227;-74
2022/06/23 04:22:27;;;;;;;21.97;19.60;;;18.70;99.90;;;;;;5073130;28;20212;-78
2022/06/23 04:25:02;;;;;;;25.13;17.43;;;18.80;99.90;;;;;;5072382;28;20226;-77
2022/06/23 04:27:34;;;;;;;24.93;18.30;;;18.80;99.90;;;;;;5069875;28;20739;-78
2022/06/23 04:30:07;;;;;;;23.27;16.57;;;19.00;99.90;;;;;;5067811;28;20259;-77
2022/06/23 04:32:37;;;;;;;19.27;14.80;;;19.00;99.90;;;;;;5071519;28;20243;-75
2022/06/23 04:35:16;;;;;;;19.50;14.63;;;19.10;99.90;;;;;;5070901;28;20203;-78
2022/06/23 04:37:51;;;;;;;19.67;14.73;;;19.10;99.90;;;;;;5060453;28;20664;-75
2022/06/23 04:40:26;;;;;;;18.60;14.10;;;19.20;99.90;;;;;;5069789;28;20280;-74
2022/06/23 04:42:57;;;;;;;19.47;13.27;;;19.20;99.90;;;;;;5067425;28;20206;-78
2022/06/23 04:45:36;;;;;;;20.97;12.53;;;19.20;99.90;;;;;;5076047;28;20203;-76
2022/06/23 04:48:12;;;;;;;21.30;12.33;;;19.30;99.90;;;;;;5081776;28;20227;-77
2022/06/23 04:50:46;;;;;;;18.53;11.30;;;19.40;99.90;;;;;;5079885;28;20620;-75
2022/06/23 04:53:32;;;;;;;17.57;10.83;;;19.50;99.90;;;;;;5082222;28;20206;-78
2022/06/23 04:56:07;;;;;;;20.43;10.77;;;19.40;99.90;;;;;;5083329;28;20234;-73
2022/06/23 04:58:45;;;;;;;17.83;11.20;;;19.30;99.90;;;;;;5078355;28;20211;-76
2022/06/23 05:01:17;;;;;;;18.57;10.00;;;19.30;99.90;;;;;;5082213;28;20661;-76
2022/06/23 05:03:49;;;;;;;19.30;9.93;;;19.30;99.90;;;;;;5072938;28;20244;-73
2022/06/23 05:06:30;;;;;;;19.03;9.57;;;19.30;99.90;;;;;;5076622;28;20207;-77
2022/06/23 05:09:02;;;;;;;16.90;9.67;;;19.30;99.90;;;;;;5073521;28;20223;-77
2022/06/23 05:11:42;;;;;;;15.90;9.90;;;19.40;99.90;;;;;;5067945;28;20206;-78
2022/06/23 05:14:17;;;;;;;14.30;8.53;;;19.40;99.90;;;;;;5071793;28;20196;-77
2022/06/23 05:16:49;;;;;;;16.70;8.97;;;19.40;99.90;;;;;;5071961;28;20238;-77
2022/06/23 05:19:22;;;;;;;18.37;9.00;;;19.40;99.90;;;;;;5069025;28;20200;-78
2022/06/23 05:21:54;;;;;;;17.67;8.83;;;19.50;99.90;;;;;;5072032;28;20290;-77
2022/06/23 05:24:24;;;;;;;16.23;8.47;;;19.50;99.90;;;;;;5074744;28;20292;-73
2022/06/23 05:26:58;;;;;;;16.90;8.80;;;19.60;99.90;;;;;;5076512;28;20210;-73
2022/06/23 05:29:30;;;;;;;15.20;8.50;;;19.60;99.90;;;;;;5069134;28;20307;-76
2022/06/23 05:32:03;;;;;;;18.63;9.30;;;19.60;99.90;;;;;;5073971;28;20228;-78
2022/06/23 05:34:37;;;;;;;17.30;8.47;;;19.60;99.90;;;;;;5071907;28;20573;-77
2022/06/23 05:37:15;;;;;;;19.60;8.70;;;19.60;99.90;;;;;;5069336;28;20291;-74
2022/06/23 05:39:47;;;;;;;19.40;8.20;;;19.50;99.90;;;;;;5080422;28;20239;-77
2022/06/23 05:42:22;;;;;;;17.17;8.30;;;19.40;99.90;;;;;;5070129;28;20223;-77
2022/06/23 05:45:01;;;;;;;16.93;8.13;;;19.50;99.90;;;;;;5079872;28;20282;-75
2022/06/23 05:47:32;;;;;;;16.10;7.63;;;19.40;99.90;;;;;;5083547;28;20198;-74
2022/06/23 05:50:05;;;;;;;15.13;8.23;;;19.30;99.90;;;;;;5074134;28;20577;-73
2022/06/23 05:52:40;;;;;;;18.17;8.10;;;19.30;99.90;;;;;;5079478;28;20276;-80
2022/06/23 05:55:20;;;;;;;17.77;7.40;;;19.30;99.90;;;;;;5076213;28;20535;-78
2022/06/23 05:57:55;;;;;;;16.57;7.27;;;19.60;99.90;;;;;;5078059;28;20203;-76
2022/06/23 06:00:29;;;;;;;14.77;6.60;;;20.70;99.90;;;;;;5075872;28;20202;-76
2022/06/23 06:03:02;;;;;;;16.50;6.03;;;21.90;99.90;;;;;;5075260;28;20199;-74
2022/06/23 06:05:35;;;;;;;15.40;5.53;;;23.50;99.90;;;;;;5074617;28;20203;-75
2022/06/23 06:08:07;;;;;;;13.83;6.00;;;24.80;99.90;;;;;;5075785;28;20231;-74
2022/06/23 06:10:37;;;;;;;15.93;5.40;;;24.90;99.90;;;;;;5074493;28;20595;-75
2022/06/23 06:13:25;;;;;;;13.37;5.40;;;25.10;99.90;;;;;;5079564;28;20234;-74
2022/06/23 06:15:56;;;;;;;12.90;5.23;;;25.90;99.90;;;;;;5067597;28;20231;-75
2022/06/23 06:18:30;;;;;;;10.53;5.20;;;26.50;99.90;;;;;;5070674;28;20204;-76
2022/06/23 06:21:02;;;;;;;13.32;4.60;;;27.60;99.90;;;;;;5076778;28;20211;-76
2022/06/23 06:23:42;;;;;;;13.00;5.22;;;28.70;99.90;;;;;;5076860;28;20207;-74
2022/06/23 06:26:13;;;;;;;9.48;4.55;;;29.40;99.90;;;;;;5072901;28;20264;-77
2022/06/23 06:28:43;;;;;;;10.57;4.75;;;28.20;99.90;;;;;;5075332;28;20317;-74
2022/06/23 06:31:18;;;;;;;11.55;4.80;;;27.70;99.90;;;;;;5076653;28;20239;-74
2022/06/23 06:33:54;;;;;;;10.63;4.70;;;27.20;99.90;;;;;;5080363;28;20199;-75
2022/06/23 06:36:27;;;;;;;13.00;5.10;;;27.10;99.90;;;;;;5072661;28;20199;-74
2022/06/23 06:39:11;;;;;;;14.20;5.30;;;26.40;99.90;;;;;;5070728;28;20235;-74
2022/06/23 06:41:44;;;;;;;13.48;4.95;;;26.40;99.90;;;;;;5072193;28;20211;-76
2022/06/23 06:44:17;;;;;;;13.03;4.70;;;26.10;99.90;;;;;;5080969;28;20264;-74
2022/06/23 06:46:47;;;;;;;13.75;5.47;;;26.50;99.90;;;;;;5078229;28;20204;-75
2022/06/23 06:49:19;;;;;;;15.57;5.65;;;27.10;99.90;;;;;;5078786;28;20242;-77
2022/06/23 06:51:50;;;;;;;12.38;5.30;;;28.10;99.90;;;;;;5075315;28;20253;-75
2022/06/23 06:54:28;;;;;;;14.18;5.43;;;29.20;99.90;;;;;;5076010;28;20237;-75
2022/06/23 06:56:58;;;;;;;12.70;6.45;;;30.00;99.90;;;;;;5071936;28;20212;-76
2022/06/23 06:59:38;;;;;;;14.50;6.47;;;30.10;99.90;;;;;;5067002;28;20199;-76
2022/06/23 07:02:13;;;;;;;15.88;6.45;;;31.10;99.90;;;;;;5079017;28;20208;-75
2022/06/23 07:04:47;;;;;;;13.93;6.75;;;31.60;99.90;;;;;;5074339;28;20255;-75
2022/06/23 07:07:21;;;;;;;14.20;6.50;;;31.80;99.90;;;;;;5069525;28;20243;-75
2022/06/23 07:09:54;;;;;;;16.75;7.03;;;31.00;99.90;;;;;;5073339;28;20231;-77
2022/06/23 07:12:27;;;;;;;14.60;6.65;;;30.10;99.90;;;;;;5071967;28;20207;-76
2022/06/23 07:15:06;;;;;;;16.38;6.75;;;28.70;99.90;;;;;;5069497;28;20276;-75
2022/06/23 07:17:39;;;;;;;13.70;7.03;;;28.20;99.90;;;;;;5066991;28;20300;-75
2022/06/23 07:20:16;;;;;;;15.88;7.20;;;27.40;99.90;;;;;;5071867;28;20238;-75
2022/06/23 07:22:52;;;;;;;17.33;7.30;;;26.60;99.90;;;;;;5071140;28;20719;-74
2022/06/23 07:25:24;;;;;;;14.27;6.53;;;26.10;99.90;;;;;;5081536;28;20207;-75
2022/06/23 07:27:58;;;;;;;18.80;6.80;;;26.60;99.90;;;;;;5078524;28;20208;-73
2022/06/23 07:30:31;;;;;;;14.82;6.65;;;26.70;99.90;;;;;;5080826;28;20225;-76
2022/06/23 07:33:05;;;;;;;17.70;6.93;;;26.70;99.90;;;;;;5070817;28;20554;-75
2022/06/23 07:35:37;;;;;;;15.33;6.87;;;26.20;99.90;;;;;;5077585;28;20637;-75
2022/06/23 07:38:11;;;;;;;14.17;7.43;;;25.90;99.90;;;;;;5070151;28;20290;-75
2022/06/23 07:40:47;;;;;;;15.03;7.00;;;25.90;99.90;;;;;;5071628;28;20251;-77
2022/06/23 07:43:24;;;;;;;16.03;8.20;;;25.70;99.90;;;;;;5074928;28;20211;-74
2022/06/23 07:45:56;;;;;;;14.70;7.03;;;26.00;99.90;;;;;;5073719;28;20261;-75
2022/06/23 07:48:32;;;;;;;20.08;6.85;;;27.20;99.90;;;;;;5074399;28;20207;-76
2022/06/23 07:51:03;;;;;;;15.25;6.88;;;28.20;99.90;;;;;;5073624;28;20314;-76
2022/06/23 07:53:35;;;;;;;15.15;6.88;;;27.70;99.90;;;;;;5073532;28;20730;-75
2022/06/23 07:56:08;;;;;;;11.73;6.68;;;28.40;99.90;;;;;;5071928;28;20265;-77
2022/06/23 07:58:42;;;;;;;15.85;6.47;;;29.50;99.90;;;;;;5074275;28;20203;-75
2022/06/23 08:01:17;;;;;;;16.73;6.22;;;29.40;99.90;;;;;;5076581;28;20207;-78
2022/06/23 08:03:54;;;;;;;16.10;5.35;;;29.60;99.90;;;;;;5075857;28;20203;-75
2022/06/23 08:06:24;;;;;;;15.70;6.53;;;29.80;99.90;;;;;;5077755;28;20231;-76
2022/06/23 08:08:56;;;;;;;16.88;7.28;;;29.40;99.90;;;;;;5075240;28;20208;-75
2022/06/23 08:14:38;;;;;;;16.67;6.72;;;26.90;99.90;;;;;;5073912;28;20284;-75
2022/06/23 08:17:14;;;;;;;17.15;5.72;;;26.40;99.90;;;;;;5070055;28;20637;-75
2022/06/23 08:19:47;;;;;;;14.90;5.85;;;26.70;99.90;;;;;;5070742;28;20688;-76
2022/06/23 08:22:20;;;;;;;15.63;6.15;;;27.40;99.90;;;;;;5068196;28;20222;-75
2022/06/23 08:24:51;;;;;;;15.13;5.45;;;28.90;99.90;;;;;;5076422;28;20227;-76
2022/06/23 08:27:43;;;;;;;16.13;6.25;;;30.20;99.90;;;;;;5072865;28;20203;-77
2022/06/23 08:30:15;;;;;;;13.45;5.80;;;30.70;99.90;;;;;;5076125;28;20273;-75
2022/06/23 08:32:47;;;;;;;14.48;5.97;;;29.80;99.90;;;;;;5074674;28;20246;-75
2022/06/23 08:35:22;;;;;;;11.32;4.80;;;28.50;99.90;;;;;;5073881;28;20211;-74
2022/06/23 08:37:57;;;;;;;19.95;5.95;;;27.70;99.90;;;;;;5066430;28;20726;-77
2022/06/23 08:40:38;;;;;;;18.15;5.57;;;27.80;99.90;;;;;;5072064;28;20242;-78
2022/06/23 08:43:26;;;;;;;11.82;5.10;;;27.50;99.90;;;;;;5072317;28;20207;-75
2022/06/23 08:46:02;;;;;;;13.90;4.72;;;28.60;99.90;;;;;;5070663;28;20204;-76
2022/06/23 08:48:39;;;;;;;17.77;5.22;;;29.60;99.90;;;;;;5077807;28;20238;-76
2022/06/23 08:51:15;;;;;;;13.18;4.47;;;30.70;99.90;;;;;;5083501;28;20222;-75
2022/06/23 08:53:55;;;;;;;12.93;4.32;;;32.30;99.90;;;;;;5074481;28;20251;-77
2022/06/23 08:56:27;;;;;;;7.82;3.78;;;33.50;97.70;;;;;;5067828;28;20200;-76
2022/06/23 08:59:03;;;;;;;15.98;3.92;;;33.80;97.30;;;;;;5076489;28;20215;-78
2022/06/23 09:01:38;;;;;;;8.30;3.65;;;34.50;93.30;;;;;;5078059;28;20231;-76
2022/06/23 09:04:15;;;;;;;10.18;3.95;;;34.20;92.30;;;;;;5071549;28;20562;-76
2022/06/23 09:06:52;;;;;;;12.75;4.30;;;33.20;93.60;;;;;;5072139;28;20196;-76
2022/06/23 09:09:33;;;;;;;11.75;3.97;;;32.50;96.80;;;;;;5072830;28;20558;-75
2022/06/23 09:12:12;;;;;;;12.60;3.78;;;32.50;95.10;;;;;;5072394;28;20263;-76
2022/06/23 09:15:05;;;;;;;8.98;4.03;;;32.70;94.70;;;;;;5071545;28;20713;-75
2022/06/23 09:18:06;;;;;;;10.65;3.97;;;33.20;93.80;;;;;;5056497;28;20274;-74
2022/06/23 09:21:08;;;;;;;11.32;4.00;;;32.90;92.50;;;;;;5068945;28;20286;-75
2022/06/23 09:24:07;;;;;;;10.27;3.30;;;32.40;91.70;;;;;;5073350;28;20709;-75
2022/06/23 09:26:40;;;;;;;9.20;3.47;;;33.50;92.90;;;;;;5055725;28;20203;-76
2022/06/23 09:29:16;;;;;;;13.15;4.05;;;33.10;91.80;;;;;;5071140;28;20204;-76
2022/06/23 09:31:58;;;;;;;9.15;4.18;;;33.20;93.60;;;;;;5073704;28;20614;-77
2022/06/23 09:34:44;;;;;;;12.35;4.10;;;33.80;94.30;;;;;;5068532;28;20294;-77
2022/06/23 09:37:37;;;;;;;12.73;3.63;;;34.20;91.70;;;;;;5074304;28;20251;-77
2022/06/23 09:40:34;;;;;;;9.90;3.70;;;34.20;90.00;;;;;;5065913;28;20557;-78
2022/06/23 09:43:35;;;;;;;13.50;4.00;;;34.70;88.30;;;;;;5075132;28;20203;-75
2022/06/23 09:46:20;;;;;;;9.05;4.03;;;35.10;88.80;;;;;;5068400;28;20238;-75
2022/06/23 09:49:18;;;;;;;11.85;4.32;;;34.30;90.00;;;;;;5079383;28;20231;-77
2022/06/23 09:52:21;;;;;;;12.38;4.22;;;32.70;91.80;;;;;;5072247;28;20223;-76
2022/06/23 09:55:25;;;;;;;12.23;4.07;;;32.60;91.90;;;;;;5075167;28;20641;-78
2022/06/23 09:58:22;;;;;;;14.32;4.22;;;33.30;92.00;;;;;;5075931;28;20286;-78
2022/06/23 10:01:00;;;;;;;11.55;4.10;;;33.50;89.00;;;;;;5076039;28;20203;-75
2022/06/23 10:03:46;;;;;;;10.57;4.07;;;32.70;91.00;;;;;;5075055;28;20210;-75
2022/06/23 10:06:36;;;;;;;9.13;3.60;;;32.20;92.40;;;;;;5071880;28;20581;-75
2022/06/23 10:09:16;;;;;;;19.25;5.10;;;32.60;93.30;;;;;;5074011;28;20269;-74
2022/06/23 10:12:07;;;;;;;10.23;4.20;;;33.20;92.50;;;;;;5073744;28;20249;-74
2022/06/23 10:15:09;;;;;;;10.82;3.92;;;33.70;93.10;;;;;;5073329;28;20253;-75
2022/06/23 10:17:55;;;;;;;9.45;3.55;;;33.30;90.90;;;;;;5080209;28;20685;-75
2022/06/23 10:20:41;;;;;;;10.57;3.70;;;34.00;90.00;;;;;;5081737;28;20610;-77
2022/06/23 10:23:39;;;;;;;10.52;3.72;;;34.70;90.00;;;;;;5082190;28;20654;-74
2022/06/23 10:26:19;;;;;;;13.52;4.25;;;34.00;82.30;;;;;;5065896;28;20302;-77
2022/06/23 10:29:10;;;;;;;10.88;3.72;;;34.30;84.80;;;;;;5077340;28;20203;-76
2022/06/23 10:31:52;;;;;;;9.70;3.58;;;34.20;87.70;;;;;;5079788;28;20224;-76
2022/06/23 10:34:35;;;;;;;11.70;3.97;;;34.30;87.30;;;;;;5082547;28;20245;-76
2022/06/23 10:37:17;;;;;;;12.50;4.63;;;34.40;88.40;;;;;;5080468;28;20283;-75
2022/06/23 10:40:13;;;;;;;13.70;4.40;;;34.30;90.10;;;;;;5077652;28;20203;-75
2022/06/23 10:43:22;;;;;;;11.38;4.13;;;34.40;86.00;;;;;;5075526;28;20214;-76
2022/06/23 10:45:56;;;;;;;11.00;4.13;;;33.70;86.80;;;;;;5080360;28;20207;-76
2022/06/23 10:48:54;;;;;;;10.27;3.88;;;34.00;86.70;;;;;;5075161;28;20210;-78
2022/06/23 10:51:38;;;;;;;11.20;3.58;;;33.90;84.20;;;;;;5076006;28;20223;-77
2022/06/23 10:54:35;;;;;;;11.18;3.67;;;33.80;88.10;;;;;;5075521;28;20223;-79
2022/06/23 10:57:23;;;;;;;10.18;3.53;;;34.00;82.60;;;;;;5057258;28;20269;-75
2022/06/23 11:00:03;;;;;;;10.45;3.90;;;34.70;81.00;;;;;;5050391;28;20287;-76
2022/06/23 11:02:55;;;;;;;11.73;3.85;;;35.20;84.80;;;;;;5073601;28;20649;-76
2022/06/23 11:05:51;;;;;;;10.77;3.92;;;35.30;82.80;;;;;;5081478;28;20237;-77
2022/06/23 11:08:54;;;;;;;9.73;3.40;;;34.80;84.80;;;;;;5085438;28;20609;-76
2022/06/23 11:11:52;;;;;;;12.73;4.30;;;33.60;88.70;;;;;;5084594;28;20218;-75
2022/06/23 11:14:34;;;;;;;10.48;3.90;;;33.30;89.50;;;;;;5063855;28;20235;-76
2022/06/23 11:17:12;;;;;;;13.18;3.72;;;33.30;90.00;;;;;;5080670;28;20298;-75
2022/06/23 11:19:57;;;;;;;11.35;3.70;;;32.50;91.10;;;;;;5079865;28;20199;-76
2022/06/23 11:22:36;;;;;;;9.65;3.72;;;32.50;91.00;;;;;;5074335;28;20261;-75
2022/06/23 11:25:35;;;;;;;15.20;4.03;;;32.90;90.60;;;;;;5081717;28;20277;-74
2022/06/23 11:28:09;;;;;;;10.57;3.80;;;32.90;90.80;;;;;;5075144;28;20246;-77
2022/06/23 11:30:50;;;;;;;10.18;4.00;;;32.80;89.40;;;;;;5075865;28;20231;-75
2022/06/23 11:34:03;;;;;;;13.02;3.70;;;32.70;90.70;;;;;;5073218;28;20696;-77
2022/06/23 11:36:54;;;;;;;11.43;3.97;;;32.90;90.70;;;;;;5046540;28;20249;-77
2022/06/23 11:40:03;;;;;;;10.05;3.30;;;32.30;92.60;;;;;;5073814;28;20257;-73
2022/06/23 11:42:53;;;;;;;13.52;3.90;;;31.90;92.70;;;;;;5077351;28;20246;-75
2022/06/23 11:45:41;;;;;;;10.75;3.53;;;31.10;92.00;;;;;;5073873;28;20654;-75
2022/06/23 11:48:31;;;;;;;15.60;4.07;;;31.00;94.00;;;;;;5073253;28;20199;-76
2022/06/23 11:51:10;;;;;;;11.23;3.88;;;30.60;93.40;;;;;;5073029;28;20196;-77
2022/06/23 11:53:58;;;;;;;14.15;3.65;;;30.30;94.50;;;;;;5069973;28;20243;-79
2022/06/23 11:56:42;;;;;;;9.77;3.33;;;30.20;95.10;;;;;;5071848;28;20211;-75
2022/06/23 11:59:25;;;;;;;15.10;3.65;;;29.90;95.60;;;;;;5079456;28;20234;-75
2022/06/23 12:02:13;;;;;;;11.27;3.93;;;29.40;95.80;;;;;;5075779;28;20203;-78
2022/06/23 12:05:09;;;;;;;13.40;3.93;;;28.70;97.10;;;;;;5079971;28;20211;-76
2022/06/23 12:07:54;;;;;;;11.80;3.70;;;28.90;99.90;;;;;;5077200;28;20231;-77
2022/06/23 12:10:25;;;;;;;10.50;3.60;;;28.40;98.40;;;;;;5076456;28;20306;-75
2022/06/23 12:13:01;;;;;;;11.87;3.50;;;28.50;99.00;;;;;;5078872;28;20211;-75
2022/06/23 12:15:33;;;;;;;11.33;3.53;;;28.20;99.10;;;;;;5071953;28;20199;-76
2022/06/23 12:18:09;;;;;;;12.90;3.97;;;28.50;99.90;;;;;;5078793;28;20211;-80
2022/06/23 12:20:50;;;;;;;9.97;3.40;;;28.70;97.90;;;;;;5074747;28;20214;-78
2022/06/23 12:23:27;;;;;;;12.67;3.47;;;28.80;99.10;;;;;;5075651;28;20614;-77
2022/06/23 12:26:05;;;;;;;10.90;3.60;;;29.20;98.80;;;;;;5078029;28;20235;-75
2022/06/23 12:28:41;;;;;;;10.13;3.50;;;29.40;99.30;;;;;;5078125;28;20203;-77
2022/06/23 12:31:22;;;;;;;8.77;3.00;;;29.70;97.00;;;;;;5081364;28;20290;-75
2022/06/23 12:34:08;;;;;;;10.57;3.40;;;29.80;99.80;;;;;;5073592;28;20706;-77
2022/06/23 12:36:48;;;;;;;10.67;3.60;;;29.80;99.90;;;;;;5073647;28;20267;-78
2022/06/23 12:39:27;;;;;;;13.90;3.60;;;30.00;97.50;;;;;;5071644;28;20203;-76
2022/06/23 12:42:03;;;;;;;13.23;3.63;;;30.10;96.80;;;;;;5073062;28;20242;-74
2022/06/23 12:44:43;;;;;;;14.93;3.60;;;29.90;96.50;;;;;;5065653;28;20611;-76
2022/06/23 12:47:24;;;;;;;9.67;3.50;;;29.60;96.90;;;;;;5079931;28;20688;-76
2022/06/23 12:50:11;;;;;;;10.03;3.03;;;29.40;97.20;;;;;;5080197;28;20250;-75
2022/06/23 12:52:48;;;;;;;11.63;3.50;;;29.60;99.90;;;;;;5081646;28;20222;-76
2022/06/23 12:55:36;;;;;;;13.67;3.57;;;29.70;96.60;;;;;;5069806;28;20688;-76
2022/06/23 12:58:20;;;;;;;12.00;3.53;;;29.10;96.00;;;;;;5072353;28;20226;-77
2022/06/23 13:00:57;;;;;;;13.40;3.23;;;28.80;97.90;;;;;;5077206;28;20711;-73
2022/06/23 13:03:35;;;;;;;9.60;3.33;;;28.80;98.60;;;;;;5074655;28;20207;-74
2022/06/23 13:06:19;;;;;;;11.73;3.53;;;29.00;98.60;;;;;;5078737;28;20740;-74
2022/06/23 13:09:05;;;;;;;13.47;3.80;;;29.00;97.00;;;;;;5073060;28;20235;-75
2022/06/23 13:11:44;;;;;;;11.53;3.40;;;28.90;97.70;;;;;;5074394;28;20211;-77
2022/06/23 13:14:19;;;;;;;9.20;3.17;;;28.70;99.30;;;;;;5075550;28;20251;-76
2022/06/23 13:16:54;;;;;;;9.30;3.67;;;29.10;99.20;;;;;;5068801;28;20243;-74
2022/06/23 13:19:33;;;;;;;9.23;3.47;;;29.20;96.90;;;;;;5069301;28;20870;-77
2022/06/23 13:22:21;;;;;;;14.90;3.63;;;29.40;97.40;;;;;;5081127;28;20212;-77
2022/06/23 13:24:53;;;;;;;12.33;3.33;;;28.90;97.20;;;;;;5080978;28;20294;-74
2022/06/23 13:27:26;;;;;;;9.40;3.10;;;28.80;97.20;;;;;;5078702;28;20199;-75
2022/06/23 13:30:00;;;;;;;15.60;3.70;;;28.60;96.70;;;;;;5076062;28;20211;-78
2022/06/23 13:32:36;;;;;;;9.30;3.13;;;28.90;97.80;;;;;;5075844;28;20200;-74
2022/06/23 13:35:14;;;;;;;12.37;3.30;;;28.70;96.90;;;;;;5073789;28;20214;-76
2022/06/23 13:37:49;;;;;;;8.33;2.80;;;29.00;98.30;;;;;;5076317;28;20211;-74
2022/06/23 13:40:25;;;;;;;11.17;3.17;;;29.10;96.90;;;;;;5081167;28;20234;-77
2022/06/23 13:43:04;;;;;;;10.83;3.33;;;29.20;97.10;;;;;;5084362;28;20230;-76